sensor_id;sensor_type;location;lat;lon;timestamp;temperature;humidity
30399;DHT22;17195;50.838;7.214;2023-11-21T00:00:00;9.10;99.90
30399;DHT22;17195;50.838;7.214;2023-11-21T00:02:26;9.20;99.90
30399;DHT22;17195;50.838;7.214;2023-11-21T00:04:52;9.10;99.90
30399;DHT22;17195;50.838;7.214;2023-11-21T00:07:18;9.10;99.90
30399;DHT22;17195;50.838;7.214;2023-11-21T00:09:44;9.10;99.90
30399;DHT22;17195;50.838;7.214;2023-11-21T00:12:09;9.10;99.90
30399;DHT22;17195;50.838;7.214;2023-11-21T00:14:36;9.10;99.90
30399;DHT22;17195;50.838;7.214;2023-11-21T00:17:02;9.00;99.90
30399;DHT22;17195;50.838;7.214;2023-11-21T00:19:28;9.00;99.90
30399;DHT22;17195;50.838;7.214;2023-11-21T00:21:53;9.00;99.90
30399;DHT22;17195;50.838;7.214;2023-11-21T00:24:19;9.00;99.90
30399;DHT22;17195;50.838;7.214;2023-11-21T00:26:45;9.00;99.90
30399;DHT22;17195;50.838;7.214;2023-11-21T00:29:10;8.90;99.90
30399;DHT22;17195;50.838;7.214;2023-11-21T00:31:36;8.80;99.90
30399;DHT22;17195;50.838;7.214;2023-11-21T00:34:03;8.90;99.90
30399;DHT22;17195;50.838;7.214;2023-11-21T00:36:30;8.80;99.90
30399;DHT22;17195;50.838;7.214;2023-11-21T00:38:57;8.80;99.90
30399;DHT22;17195;50.838;7.214;2023-11-21T00:41:22;8.90;99.90
30399;DHT22;17195;50.838;7.214;2023-11-21T00:43:48;8.80;99.90
30399;DHT22;17195;50.838;7.214;2023-11-21T00:46:13;8.80;99.90
30399;DHT22;17195;50.838;7.214;2023-11-21T00:48:39;8.80;99.90
30399;DHT22;17195;50.838;7.214;2023-11-21T00:51:05;8.70;99.90
30399;DHT22;17195;50.838;7.214;2023-11-21T00:53:31;8.70;99.90
30399;DHT22;17195;50.838;7.214;2023-11-21T00:55:57;8.70;99.90
30399;DHT22;17195;50.838;7.214;2023-11-21T00:58:26;8.70;99.90
30399;DHT22;17195;50.838;7.214;2023-11-21T01:00:52;8.60;99.90
30399;DHT22;17195;50.838;7.214;2023-11-21T01:03:18;8.60;99.90
30399;DHT22;17195;50.838;7.214;2023-11-21T01:05:43;8.50;99.90
30399;DHT22;17195;50.838;7.214;2023-11-21T01:08:09;8.50;99.90
30399;DHT22;17195;50.838;7.214;2023-11-21T01:10:35;8.50;99.90
30399;DHT22;17195;50.838;7.214;2023-11-21T01:13:01;8.50;99.90
30399;DHT22;17195;50.838;7.214;2023-11-21T01:15:27;8.50;99.90
30399;DHT22;17195;50.838;7.214;2023-11-21T01:17:52;8.40;99.90
30399;DHT22;17195;50.838;7.214;2023-11-21T01:20:18;8.40;99.90
30399;DHT22;17195;50.838;7.214;2023-11-21T01:22:43;8.40;99.90
30399;DHT22;17195;50.838;7.214;2023-11-21T01:25:10;8.40;99.90
30399;DHT22;17195;50.838;7.214;2023-11-21T01:27:36;8.30;99.90
30399;DHT22;17195;50.838;7.214;2023-11-21T01:30:05;8.30;99.90
30399;DHT22;17195;50.838;7.214;2023-11-21T01:32:33;8.20;99.90
30399;DHT22;17195;50.838;7.214;2023-11-21T01:34:59;8.20;99.90
30399;DHT22;17195;50.838;7.214;2023-11-21T01:37:25;8.20;99.90
30399;DHT22;17195;50.838;7.214;2023-11-21T01:39:53;8.10;99.90
30399;DHT22;17195;50.838;7.214;2023-11-21T01:42:20;8.10;99.90
30399;DHT22;17195;50.838;7.214;2023-11-21T01:44:46;8.10;99.90
30399;DHT22;17195;50.838;7.214;2023-11-21T01:47:13;8.10;99.90
30399;DHT22;17195;50.838;7.214;2023-11-21T01:49:38;8.10;99.90
30399;DHT22;17195;50.838;7.214;2023-11-21T01:52:04;8.10;99.90
30399;DHT22;17195;50.838;7.214;2023-11-21T01:54:31;8.10;99.90
30399;DHT22;17195;50.838;7.214;2023-11-21T01:56:58;8.10;99.90
30399;DHT22;17195;50.838;7.214;2023-11-21T01:59:34;8.10;99.90
30399;DHT22;17195;50.838;7.214;2023-11-21T02:02:00;8.10;99.90
30399;DHT22;17195;50.838;7.214;2023-11-21T02:04:25;8.10;99.90
30399;DHT22;17195;50.838;7.214;2023-11-21T02:06:51;8.10;99.90
30399;DHT22;17195;50.838;7.214;2023-11-21T02:09:17;8.20;99.90
30399;DHT22;17195;50.838;7.214;2023-11-21T02:11:43;8.20;99.90
30399;DHT22;17195;50.838;7.214;2023-11-21T02:14:09;8.10;99.90
30399;DHT22;17195;50.838;7.214;2023-11-21T02:16:35;8.20;99.90
30399;DHT22;17195;50.838;7.214;2023-11-21T02:19:02;8.20;99.90
30399;DHT22;17195;50.838;7.214;2023-11-21T02:21:30;8.20;99.90
30399;DHT22;17195;50.838;7.214;2023-11-21T02:23:56;8.20;99.90
30399;DHT22;17195;50.838;7.214;2023-11-21T02:26:21;8.20;99.90
30399;DHT22;17195;50.838;7.214;2023-11-21T02:28:47;8.20;99.90
30399;DHT22;17195;50.838;7.214;2023-11-21T02:31:13;8.20;99.90
30399;DHT22;17195;50.838;7.214;2023-11-21T02:33:38;8.30;99.90
30399;DHT22;17195;50.838;7.214;2023-11-21T02:36:04;8.30;99.90
30399;DHT22;17195;50.838;7.214;2023-11-21T02:38:30;8.30;99.90
30399;DHT22;17195;50.838;7.214;2023-11-21T02:40:57;8.30;99.90
30399;DHT22;17195;50.838;7.214;2023-11-21T02:43:23;8.30;99.90
30399;DHT22;17195;50.838;7.214;2023-11-21T02:45:49;8.20;99.90
30399;DHT22;17195;50.838;7.214;2023-11-21T02:48:14;8.20;99.90
30399;DHT22;17195;50.838;7.214;2023-11-21T02:50:40;8.20;99.90
30399;DHT22;17195;50.838;7.214;2023-11-21T02:53:05;8.20;99.90
30399;DHT22;17195;50.838;7.214;2023-11-21T02:55:31;8.20;99.90
30399;DHT22;17195;50.838;7.214;2023-11-21T02:58:00;8.10;99.90
30399;DHT22;17195;50.838;7.214;2023-11-21T03:00:25;8.10;99.90
30399;DHT22;17195;50.838;7.214;2023-11-21T03:02:51;8.10;99.90
30399;DHT22;17195;50.838;7.214;2023-11-21T03:05:17;8.10;99.90
30399;DHT22;17195;50.838;7.214;2023-11-21T03:07:42;8.00;99.90
30399;DHT22;17195;50.838;7.214;2023-11-21T03:10:09;7.90;99.90
30399;DHT22;17195;50.838;7.214;2023-11-21T03:12:34;7.90;99.90
30399;DHT22;17195;50.838;7.214;2023-11-21T03:15:00;7.90;99.90
30399;DHT22;17195;50.838;7.214;2023-11-21T03:17:27;7.90;99.90
30399;DHT22;17195;50.838;7.214;2023-11-21T03:19:54;7.90;99.90
30399;DHT22;17195;50.838;7.214;2023-11-21T03:22:20;7.90;99.90
30399;DHT22;17195;50.838;7.214;2023-11-21T03:24:45;8.00;99.90
30399;DHT22;17195;50.838;7.214;2023-11-21T03:27:11;7.90;99.90
30399;DHT22;17195;50.838;7.214;2023-11-21T03:29:37;7.90;99.90
30399;DHT22;17195;50.838;7.214;2023-11-21T03:32:03;7.90;99.90
30399;DHT22;17195;50.838;7.214;2023-11-21T03:34:29;8.00;99.90
30399;DHT22;17195;50.838;7.214;2023-11-21T03:36:54;8.00;99.90
30399;DHT22;17195;50.838;7.214;2023-11-21T03:39:20;8.00;99.90
30399;DHT22;17195;50.838;7.214;2023-11-21T03:41:46;8.00;99.90
30399;DHT22;17195;50.838;7.214;2023-11-21T03:44:12;8.00;99.90
30399;DHT22;17195;50.838;7.214;2023-11-21T03:46:38;8.10;99.90
30399;DHT22;17195;50.838;7.214;2023-11-21T03:49:03;8.10;99.90
30399;DHT22;17195;50.838;7.214;2023-11-21T03:51:29;8.10;99.90
30399;DHT22;17195;50.838;7.214;2023-11-21T03:53:54;8.10;99.90
30399;DHT22;17195;50.838;7.214;2023-11-21T03:56:20;8.20;99.90
30399;DHT22;17195;50.838;7.214;2023-11-21T03:58:47;8.20;99.90
30399;DHT22;17195;50.838;7.214;2023-11-21T04:01:22;8.20;99.90
30399;DHT22;17195;50.838;7.214;2023-11-21T04:03:49;8.30;99.90
30399;DHT22;17195;50.838;7.214;2023-11-21T04:06:15;8.30;99.90
30399;DHT22;17195;50.838;7.214;2023-11-21T04:08:43;8.30;99.90
30399;DHT22;17195;50.838;7.214;2023-11-21T04:11:09;8.30;99.90
30399;DHT22;17195;50.838;7.214;2023-11-21T04:13:37;8.30;99.90
30399;DHT22;17195;50.838;7.214;2023-11-21T04:16:04;8.30;99.90
30399;DHT22;17195;50.838;7.214;2023-11-21T04:18:30;8.30;99.90
30399;DHT22;17195;50.838;7.214;2023-11-21T04:20:55;8.30;99.90
30399;DHT22;17195;50.838;7.214;2023-11-21T04:23:21;8.40;99.90
30399;DHT22;17195;50.838;7.214;2023-11-21T04:25:46;8.40;99.90
30399;DHT22;17195;50.838;7.214;2023-11-21T04:28:12;8.40;99.90
30399;DHT22;17195;50.838;7.214;2023-11-21T04:30:38;8.40;99.90
30399;DHT22;17195;50.838;7.214;2023-11-21T04:33:04;8.40;99.90
30399;DHT22;17195;50.838;7.214;2023-11-21T04:35:30;8.40;99.90
30399;DHT22;17195;50.838;7.214;2023-11-21T04:37:56;8.50;99.90
30399;DHT22;17195;50.838;7.214;2023-11-21T04:40:22;8.50;99.90
30399;DHT22;17195;50.838;7.214;2023-11-21T04:42:48;8.40;99.90
30399;DHT22;17195;50.838;7.214;2023-11-21T04:45:13;8.40;99.90
30399;DHT22;17195;50.838;7.214;2023-11-21T04:47:39;8.40;99.90
30399;DHT22;17195;50.838;7.214;2023-11-21T04:50:05;8.50;99.90
30399;DHT22;17195;50.838;7.214;2023-11-21T04:52:31;8.40;99.90
30399;DHT22;17195;50.838;7.214;2023-11-21T04:54:58;8.40;99.90
30399;DHT22;17195;50.838;7.214;2023-11-21T04:57:24;8.40;99.90
30399;DHT22;17195;50.838;7.214;2023-11-21T04:59:49;8.40;99.90
30399;DHT22;17195;50.838;7.214;2023-11-21T05:02:16;8.40;99.90
30399;DHT22;17195;50.838;7.214;2023-11-21T05:04:41;8.40;99.90
30399;DHT22;17195;50.838;7.214;2023-11-21T05:07:08;8.40;99.90
30399;DHT22;17195;50.838;7.214;2023-11-21T05:09:33;8.40;99.90
30399;DHT22;17195;50.838;7.214;2023-11-21T05:11:59;8.40;99.90
30399;DHT22;17195;50.838;7.214;2023-11-21T05:14:25;8.30;99.90
30399;DHT22;17195;50.838;7.214;2023-11-21T05:16:51;8.30;99.90
30399;DHT22;17195;50.838;7.214;2023-11-21T05:19:17;8.30;99.90
30399;DHT22;17195;50.838;7.214;2023-11-21T05:21:43;8.30;99.90
30399;DHT22;17195;50.838;7.214;2023-11-21T05:24:08;8.30;99.90
30399;DHT22;17195;50.838;7.214;2023-11-21T05:26:35;8.30;99.90
30399;DHT22;17195;50.838;7.214;2023-11-21T05:29:00;8.20;99.90
30399;DHT22;17195;50.838;7.214;2023-11-21T05:31:26;8.20;99.90
30399;DHT22;17195;50.838;7.214;2023-11-21T05:33:52;8.30;99.90
30399;DHT22;17195;50.838;7.214;2023-11-21T05:36:18;8.20;99.90
30399;DHT22;17195;50.838;7.214;2023-11-21T05:38:44;8.30;99.90
30399;DHT22;17195;50.838;7.214;2023-11-21T05:41:09;8.30;99.90
30399;DHT22;17195;50.838;7.214;2023-11-21T05:43:39;8.30;99.90
30399;DHT22;17195;50.838;7.214;2023-11-21T05:46:05;8.20;99.90
30399;DHT22;17195;50.838;7.214;2023-11-21T05:48:32;8.20;99.90
30399;DHT22;17195;50.838;7.214;2023-11-21T05:50:58;8.20;99.90
30399;DHT22;17195;50.838;7.214;2023-11-21T05:53:24;8.20;99.90
30399;DHT22;17195;50.838;7.214;2023-11-21T05:55:50;8.20;99.90
30399;DHT22;17195;50.838;7.214;2023-11-21T05:58:15;8.20;99.90
30399;DHT22;17195;50.838;7.214;2023-11-21T06:00:41;8.20;99.90
30399;DHT22;17195;50.838;7.214;2023-11-21T06:03:07;8.20;99.90
30399;DHT22;17195;50.838;7.214;2023-11-21T06:05:33;8.10;99.90
30399;DHT22;17195;50.838;7.214;2023-11-21T06:07:58;8.10;99.90
30399;DHT22;17195;50.838;7.214;2023-11-21T06:10:24;8.10;99.90
30399;DHT22;17195;50.838;7.214;2023-11-21T06:12:50;8.10;99.90
30399;DHT22;17195;50.838;7.214;2023-11-21T06:15:16;8.10;99.90
30399;DHT22;17195;50.838;7.214;2023-11-21T06:17:44;8.10;99.90
30399;DHT22;17195;50.838;7.214;2023-11-21T06:20:10;8.10;99.90
30399;DHT22;17195;50.838;7.214;2023-11-21T06:22:40;8.10;99.90
30399;DHT22;17195;50.838;7.214;2023-11-21T06:25:07;8.10;99.90
30399;DHT22;17195;50.838;7.214;2023-11-21T06:27:35;8.10;99.90
30399;DHT22;17195;50.838;7.214;2023-11-21T06:30:01;8.10;99.90
30399;DHT22;17195;50.838;7.214;2023-11-21T06:32:27;8.10;99.90
30399;DHT22;17195;50.838;7.214;2023-11-21T06:34:55;8.10;99.90
30399;DHT22;17195;50.838;7.214;2023-11-21T06:37:20;8.10;99.90
30399;DHT22;17195;50.838;7.214;2023-11-21T06:39:49;8.10;99.90
30399;DHT22;17195;50.838;7.214;2023-11-21T06:42:14;8.10;99.90
30399;DHT22;17195;50.838;7.214;2023-11-21T06:44:40;8.10;99.90
30399;DHT22;17195;50.838;7.214;2023-11-21T06:47:07;8.10;99.90
30399;DHT22;17195;50.838;7.214;2023-11-21T06:49:32;8.10;99.90
30399;DHT22;17195;50.838;7.214;2023-11-21T06:51:58;8.20;99.90
30399;DHT22;17195;50.838;7.214;2023-11-21T06:54:26;8.30;99.90
30399;DHT22;17195;50.838;7.214;2023-11-21T06:56:51;8.30;99.90
30399;DHT22;17195;50.838;7.214;2023-11-21T06:59:18;8.30;99.90
30399;DHT22;17195;50.838;7.214;2023-11-21T07:01:44;8.40;99.90
30399;DHT22;17195;50.838;7.214;2023-11-21T07:04:10;8.40;99.90
30399;DHT22;17195;50.838;7.214;2023-11-21T07:06:35;8.40;99.90
30399;DHT22;17195;50.838;7.214;2023-11-21T07:09:01;8.40;99.90
30399;DHT22;17195;50.838;7.214;2023-11-21T07:11:28;8.40;99.90
30399;DHT22;17195;50.838;7.214;2023-11-21T07:13:54;8.50;99.90
30399;DHT22;17195;50.838;7.214;2023-11-21T07:16:19;8.50;99.90
30399;DHT22;17195;50.838;7.214;2023-11-21T07:18:45;8.50;99.90
30399;DHT22;17195;50.838;7.214;2023-11-21T07:21:10;8.50;99.90
30399;DHT22;17195;50.838;7.214;2023-11-21T07:23:37;8.50;99.90
30399;DHT22;17195;50.838;7.214;2023-11-21T07:26:03;8.60;99.90
30399;DHT22;17195;50.838;7.214;2023-11-21T07:28:34;8.60;99.90
30399;DHT22;17195;50.838;7.214;2023-11-21T07:30:59;8.70;99.90
30399;DHT22;17195;50.838;7.214;2023-11-21T07:33:25;8.70;99.90
30399;DHT22;17195;50.838;7.214;2023-11-21T07:35:51;8.80;99.90
30399;DHT22;17195;50.838;7.214;2023-11-21T07:38:17;8.80;99.90
30399;DHT22;17195;50.838;7.214;2023-11-21T07:40:43;8.80;99.90
30399;DHT22;17195;50.838;7.214;2023-11-21T07:43:09;8.80;99.90
30399;DHT22;17195;50.838;7.214;2023-11-21T07:45:36;8.90;99.90
30399;DHT22;17195;50.838;7.214;2023-11-21T07:48:01;8.90;99.90
30399;DHT22;17195;50.838;7.214;2023-11-21T07:50:28;8.90;99.90
30399;DHT22;17195;50.838;7.214;2023-11-21T07:52:54;9.00;99.90
30399;DHT22;17195;50.838;7.214;2023-11-21T07:55:20;9.00;99.90
30399;DHT22;17195;50.838;7.214;2023-11-21T07:57:45;9.00;99.90
30399;DHT22;17195;50.838;7.214;2023-11-21T08:00:11;9.00;99.90
30399;DHT22;17195;50.838;7.214;2023-11-21T08:02:40;9.10;99.90
30399;DHT22;17195;50.838;7.214;2023-11-21T08:05:12;9.20;99.90
30399;DHT22;17195;50.838;7.214;2023-11-21T08:07:37;9.20;99.90
30399;DHT22;17195;50.838;7.214;2023-11-21T08:10:03;9.30;99.90
30399;DHT22;17195;50.838;7.214;2023-11-21T08:12:30;9.30;99.90
30399;DHT22;17195;50.838;7.214;2023-11-21T08:14:56;9.40;99.90
30399;DHT22;17195;50.838;7.214;2023-11-21T08:17:21;9.50;99.90
30399;DHT22;17195;50.838;7.214;2023-11-21T08:19:47;9.60;99.90
30399;DHT22;17195;50.838;7.214;2023-11-21T08:22:15;9.60;99.90
30399;DHT22;17195;50.838;7.214;2023-11-21T08:24:43;9.60;99.90
30399;DHT22;17195;50.838;7.214;2023-11-21T08:27:09;9.70;99.90
30399;DHT22;17195;50.838;7.214;2023-11-21T08:29:35;9.80;99.90
30399;DHT22;17195;50.838;7.214;2023-11-21T08:32:02;9.80;99.90
30399;DHT22;17195;50.838;7.214;2023-11-21T08:34:28;9.90;99.90
30399;DHT22;17195;50.838;7.214;2023-11-21T08:36:54;10.00;99.90
30399;DHT22;17195;50.838;7.214;2023-11-21T08:39:21;10.00;99.90
30399;DHT22;17195;50.838;7.214;2023-11-21T08:41:49;10.10;99.90
30399;DHT22;17195;50.838;7.214;2023-11-21T08:44:16;10.20;99.90
30399;DHT22;17195;50.838;7.214;2023-11-21T08:46:43;10.30;99.90
30399;DHT22;17195;50.838;7.214;2023-11-21T08:49:13;10.30;99.90
30399;DHT22;17195;50.838;7.214;2023-11-21T08:51:40;10.40;99.90
30399;DHT22;17195;50.838;7.214;2023-11-21T08:54:06;10.30;99.90
30399;DHT22;17195;50.838;7.214;2023-11-21T08:56:34;10.40;99.90
30399;DHT22;17195;50.838;7.214;2023-11-21T08:59:00;10.40;99.90
30399;DHT22;17195;50.838;7.214;2023-11-21T09:01:28;10.40;99.90
30399;DHT22;17195;50.838;7.214;2023-11-21T09:03:53;10.30;99.90
30399;DHT22;17195;50.838;7.214;2023-11-21T09:06:19;10.20;99.90
30399;DHT22;17195;50.838;7.214;2023-11-21T09:08:44;10.20;99.90
30399;DHT22;17195;50.838;7.214;2023-11-21T09:11:10;10.10;99.90
30399;DHT22;17195;50.838;7.214;2023-11-21T09:13:36;10.20;99.90
30399;DHT22;17195;50.838;7.214;2023-11-21T09:16:02;10.20;99.90
30399;DHT22;17195;50.838;7.214;2023-11-21T09:18:27;10.30;99.90
30399;DHT22;17195;50.838;7.214;2023-11-21T09:20:53;10.30;99.90
30399;DHT22;17195;50.838;7.214;2023-11-21T09:23:18;10.40;99.90
30399;DHT22;17195;50.838;7.214;2023-11-21T09:25:44;10.40;99.90
30399;DHT22;17195;50.838;7.214;2023-11-21T09:28:11;10.50;99.90
30399;DHT22;17195;50.838;7.214;2023-11-21T09:30:37;10.50;99.90
30399;DHT22;17195;50.838;7.214;2023-11-21T09:33:04;10.60;99.90
30399;DHT22;17195;50.838;7.214;2023-11-21T09:35:32;10.50;99.90
30399;DHT22;17195;50.838;7.214;2023-11-21T09:37:58;10.60;99.90
30399;DHT22;17195;50.838;7.214;2023-11-21T09:40:24;10.70;99.90
30399;DHT22;17195;50.838;7.214;2023-11-21T09:42:55;10.80;99.90
30399;DHT22;17195;50.838;7.214;2023-11-21T09:45:26;10.60;99.90
30399;DHT22;17195;50.838;7.214;2023-11-21T09:47:54;10.60;99.90
30399;DHT22;17195;50.838;7.214;2023-11-21T09:50:21;10.60;99.90
30399;DHT22;17195;50.838;7.214;2023-11-21T09:55:34;10.70;99.90
30399;DHT22;17195;50.838;7.214;2023-11-21T09:58:03;10.70;99.90
30399;DHT22;17195;50.838;7.214;2023-11-21T10:00:30;10.60;99.90
30399;DHT22;17195;50.838;7.214;2023-11-21T10:02:58;10.60;99.90
30399;DHT22;17195;50.838;7.214;2023-11-21T10:05:25;10.50;99.90
30399;DHT22;17195;50.838;7.214;2023-11-21T10:07:50;10.60;99.90
30399;DHT22;17195;50.838;7.214;2023-11-21T10:10:19;10.70;99.90
30399;DHT22;17195;50.838;7.214;2023-11-21T10:12:56;10.80;99.90
30399;DHT22;17195;50.838;7.214;2023-11-21T10:15:23;10.70;99.90
30399;DHT22;17195;50.838;7.214;2023-11-21T10:17:52;10.70;99.90
30399;DHT22;17195;50.838;7.214;2023-11-21T10:20:19;10.70;99.90
30399;DHT22;17195;50.838;7.214;2023-11-21T10:22:45;10.70;99.90
30399;DHT22;17195;50.838;7.214;2023-11-21T10:25:11;10.80;99.90
30399;DHT22;17195;50.838;7.214;2023-11-21T10:27:40;10.90;99.90
30399;DHT22;17195;50.838;7.214;2023-11-21T10:30:09;10.80;99.90
30399;DHT22;17195;50.838;7.214;2023-11-21T10:32:39;10.90;99.90
30399;DHT22;17195;50.838;7.214;2023-11-21T10:35:07;10.90;99.90
30399;DHT22;17195;50.838;7.214;2023-11-21T10:37:36;11.00;99.90
30399;DHT22;17195;50.838;7.214;2023-11-21T10:40:06;11.00;99.90
30399;DHT22;17195;50.838;7.214;2023-11-21T10:42:32;11.00;99.90
30399;DHT22;17195;50.838;7.214;2023-11-21T10:44:58;11.00;99.90
30399;DHT22;17195;50.838;7.214;2023-11-21T10:47:23;11.10;99.90
30399;DHT22;17195;50.838;7.214;2023-11-21T10:49:49;11.10;99.90
30399;DHT22;17195;50.838;7.214;2023-11-21T10:52:15;11.30;99.90
30399;DHT22;17195;50.838;7.214;2023-11-21T10:54:46;11.20;99.90
30399;DHT22;17195;50.838;7.214;2023-11-21T10:57:16;11.30;99.90
30399;DHT22;17195;50.838;7.214;2023-11-21T10:59:46;11.40;99.90
30399;DHT22;17195;50.838;7.214;2023-11-21T11:02:23;11.60;99.90
30399;DHT22;17195;50.838;7.214;2023-11-21T11:04:53;11.70;99.90
30399;DHT22;17195;50.838;7.214;2023-11-21T11:07:21;11.70;99.90
30399;DHT22;17195;50.838;7.214;2023-11-21T11:09:51;11.70;99.90
30399;DHT22;17195;50.838;7.214;2023-11-21T11:12:17;11.60;99.90
30399;DHT22;17195;50.838;7.214;2023-11-21T11:14:44;11.50;99.90
30399;DHT22;17195;50.838;7.214;2023-11-21T11:17:10;11.40;99.90
30399;DHT22;17195;50.838;7.214;2023-11-21T11:19:36;11.30;99.90
30399;DHT22;17195;50.838;7.214;2023-11-21T11:28:01;11.40;99.90
30399;DHT22;17195;50.838;7.214;2023-11-21T11:30:47;11.30;99.90
30399;DHT22;17195;50.838;7.214;2023-11-21T11:33:42;11.10;99.90
30399;DHT22;17195;50.838;7.214;2023-11-21T11:36:31;11.00;99.90
30399;DHT22;17195;50.838;7.214;2023-11-21T11:38:59;11.00;99.90
30399;DHT22;17195;50.838;7.214;2023-11-21T11:41:36;11.00;99.90
30399;DHT22;17195;50.838;7.214;2023-11-21T11:44:01;10.90;99.90
30399;DHT22;17195;50.838;7.214;2023-11-21T11:46:41;11.00;99.90
30399;DHT22;17195;50.838;7.214;2023-11-21T11:49:07;10.90;99.90
30399;DHT22;17195;50.838;7.214;2023-11-21T11:51:33;10.90;99.90
30399;DHT22;17195;50.838;7.214;2023-11-21T11:54:01;10.90;99.90
30399;DHT22;17195;50.838;7.214;2023-11-21T11:56:34;11.00;99.90
30399;DHT22;17195;50.838;7.214;2023-11-21T11:59:03;11.00;99.90
30399;DHT22;17195;50.838;7.214;2023-11-21T12:01:31;10.90;99.90
30399;DHT22;17195;50.838;7.214;2023-11-21T12:06:51;11.10;99.90
30399;DHT22;17195;50.838;7.214;2023-11-21T12:09:18;11.20;99.90
30399;DHT22;17195;50.838;7.214;2023-11-21T12:11:45;11.30;99.90
30399;DHT22;17195;50.838;7.214;2023-11-21T12:14:13;11.30;99.90
30399;DHT22;17195;50.838;7.214;2023-11-21T12:16:39;11.40;99.90
30399;DHT22;17195;50.838;7.214;2023-11-21T12:19:05;11.40;99.90
30399;DHT22;17195;50.838;7.214;2023-11-21T12:21:30;11.40;99.90
30399;DHT22;17195;50.838;7.214;2023-11-21T12:23:57;11.50;99.90
30399;DHT22;17195;50.838;7.214;2023-11-21T12:26:27;11.50;99.90
30399;DHT22;17195;50.838;7.214;2023-11-21T12:28:53;11.40;99.90
30399;DHT22;17195;50.838;7.214;2023-11-21T12:31:22;11.30;99.90
30399;DHT22;17195;50.838;7.214;2023-11-21T12:33:48;11.30;99.90
30399;DHT22;17195;50.838;7.214;2023-11-21T12:36:14;11.30;99.90
30399;DHT22;17195;50.838;7.214;2023-11-21T12:38:40;11.30;99.90
30399;DHT22;17195;50.838;7.214;2023-11-21T12:41:07;11.40;99.90
30399;DHT22;17195;50.838;7.214;2023-11-21T12:43:33;11.50;99.90
30399;DHT22;17195;50.838;7.214;2023-11-21T12:46:10;11.60;99.90
30399;DHT22;17195;50.838;7.214;2023-11-21T12:48:41;11.50;99.90
30399;DHT22;17195;50.838;7.214;2023-11-21T12:51:10;11.50;99.90
30399;DHT22;17195;50.838;7.214;2023-11-21T12:53:40;11.50;99.90
30399;DHT22;17195;50.838;7.214;2023-11-21T12:56:07;11.50;99.90
30399;DHT22;17195;50.838;7.214;2023-11-21T12:58:35;11.50;99.90
30399;DHT22;17195;50.838;7.214;2023-11-21T13:01:01;11.70;99.90
30399;DHT22;17195;50.838;7.214;2023-11-21T13:03:29;11.70;99.90
30399;DHT22;17195;50.838;7.214;2023-11-21T13:05:55;11.80;99.90
30399;DHT22;17195;50.838;7.214;2023-11-21T13:08:23;11.80;99.90
30399;DHT22;17195;50.838;7.214;2023-11-21T13:10:53;11.80;99.90
30399;DHT22;17195;50.838;7.214;2023-11-21T13:13:20;11.70;99.90
30399;DHT22;17195;50.838;7.214;2023-11-21T13:15:49;11.70;99.90
30399;DHT22;17195;50.838;7.214;2023-11-21T13:18:15;11.60;99.90
30399;DHT22;17195;50.838;7.214;2023-11-21T13:20:41;11.70;99.90
30399;DHT22;17195;50.838;7.214;2023-11-21T13:23:09;11.80;99.90
30399;DHT22;17195;50.838;7.214;2023-11-21T13:25:37;11.70;99.90
30399;DHT22;17195;50.838;7.214;2023-11-21T13:28:04;11.60;99.90
30399;DHT22;17195;50.838;7.214;2023-11-21T13:30:30;11.50;99.90
30399;DHT22;17195;50.838;7.214;2023-11-21T13:33:03;11.40;99.90
30399;DHT22;17195;50.838;7.214;2023-11-21T13:35:36;11.40;99.90
30399;DHT22;17195;50.838;7.214;2023-11-21T13:38:16;11.30;99.90
30399;DHT22;17195;50.838;7.214;2023-11-21T13:40:50;11.30;99.90
30399;DHT22;17195;50.838;7.214;2023-11-21T13:43:19;11.20;99.90
30399;DHT22;17195;50.838;7.214;2023-11-21T13:45:47;11.10;99.90
30399;DHT22;17195;50.838;7.214;2023-11-21T13:48:13;11.10;99.90
30399;DHT22;17195;50.838;7.214;2023-11-21T13:50:43;11.20;99.90
30399;DHT22;17195;50.838;7.214;2023-11-21T13:53:24;11.30;99.90
30399;DHT22;17195;50.838;7.214;2023-11-21T13:55:51;11.30;99.90
30399;DHT22;17195;50.838;7.214;2023-11-21T13:58:20;11.10;99.90
30399;DHT22;17195;50.838;7.214;2023-11-21T14:00:50;11.10;99.90
30399;DHT22;17195;50.838;7.214;2023-11-21T14:03:22;11.10;99.90
30399;DHT22;17195;50.838;7.214;2023-11-21T14:05:49;11.00;99.90
30399;DHT22;17195;50.838;7.214;2023-11-21T14:08:21;11.00;99.90
30399;DHT22;17195;50.838;7.214;2023-11-21T14:10:48;10.90;99.90
30399;DHT22;17195;50.838;7.214;2023-11-21T14:13:21;10.90;99.90
30399;DHT22;17195;50.838;7.214;2023-11-21T14:15:49;10.80;99.90
30399;DHT22;17195;50.838;7.214;2023-11-21T14:18:19;10.70;99.90
30399;DHT22;17195;50.838;7.214;2023-11-21T14:20:52;10.70;99.90
30399;DHT22;17195;50.838;7.214;2023-11-21T14:23:18;10.60;99.90
30399;DHT22;17195;50.838;7.214;2023-11-21T14:25:43;10.60;99.90
30399;DHT22;17195;50.838;7.214;2023-11-21T14:28:09;10.50;99.90
30399;DHT22;17195;50.838;7.214;2023-11-21T14:30:37;10.50;99.90
30399;DHT22;17195;50.838;7.214;2023-11-21T14:33:05;10.50;99.90
30399;DHT22;17195;50.838;7.214;2023-11-21T14:35:33;10.40;99.90
30399;DHT22;17195;50.838;7.214;2023-11-21T14:38:00;10.40;99.90
30399;DHT22;17195;50.838;7.214;2023-11-21T14:40:26;10.40;99.90
30399;DHT22;17195;50.838;7.214;2023-11-21T14:42:56;10.40;99.90
30399;DHT22;17195;50.838;7.214;2023-11-21T14:45:22;10.40;99.90
30399;DHT22;17195;50.838;7.214;2023-11-21T14:47:51;10.40;99.90
30399;DHT22;17195;50.838;7.214;2023-11-21T14:50:42;10.40;99.90
30399;DHT22;17195;50.838;7.214;2023-11-21T14:53:12;10.40;99.90
30399;DHT22;17195;50.838;7.214;2023-11-21T14:55:40;10.40;99.90
30399;DHT22;17195;50.838;7.214;2023-11-21T14:58:16;10.30;99.90
30399;DHT22;17195;50.838;7.214;2023-11-21T15:00:48;10.30;99.90
30399;DHT22;17195;50.838;7.214;2023-11-21T15:03:16;10.20;99.90
30399;DHT22;17195;50.838;7.214;2023-11-21T15:06:08;10.20;99.90
30399;DHT22;17195;50.838;7.214;2023-11-21T15:08:55;10.20;99.90
30399;DHT22;17195;50.838;7.214;2023-11-21T15:11:41;10.20;99.90
30399;DHT22;17195;50.838;7.214;2023-11-21T15:14:07;10.20;99.90
30399;DHT22;17195;50.838;7.214;2023-11-21T15:16:35;10.10;99.90
30399;DHT22;17195;50.838;7.214;2023-11-21T15:19:07;10.20;99.90
30399;DHT22;17195;50.838;7.214;2023-11-21T15:21:37;10.20;99.90
30399;DHT22;17195;50.838;7.214;2023-11-21T15:24:03;10.10;99.90
30399;DHT22;17195;50.838;7.214;2023-11-21T15:26:29;10.00;99.90
30399;DHT22;17195;50.838;7.214;2023-11-21T15:28:55;10.00;99.90
30399;DHT22;17195;50.838;7.214;2023-11-21T15:31:21;9.90;99.90
30399;DHT22;17195;50.838;7.214;2023-11-21T15:33:51;9.90;99.90
30399;DHT22;17195;50.838;7.214;2023-11-21T15:36:18;9.80;99.90
30399;DHT22;17195;50.838;7.214;2023-11-21T15:38:44;9.90;99.90
30399;DHT22;17195;50.838;7.214;2023-11-21T15:41:10;9.90;99.90
30399;DHT22;17195;50.838;7.214;2023-11-21T15:43:37;9.90;99.90
30399;DHT22;17195;50.838;7.214;2023-11-21T15:46:02;9.90;99.90
30399;DHT22;17195;50.838;7.214;2023-11-21T15:48:36;9.90;99.90
30399;DHT22;17195;50.838;7.214;2023-11-21T15:51:04;9.90;99.90